Ro Fjord — LFEI — position and weather

sailwx.info

Track history (hours):
 
Tides and Currents Weather Stations Pressure Air Temp Water Temp Dewpoint Dewpoint Depression Visibility Wind Speed Wind Dir Waves Ship Positions

Ro Fjord

Last reported at 2018-Apr-23 21:00 UTC. Time now 2018-Apr-23 21:18 UTC.
Position N 61°51' E 005°16'.

Length 72 m; draft 6.4 m.

Type: Ship. MMSI: 257430000.

Date/timePositionNaut miles runAvg speedWind from/ knotsBaromVisibWave heightAir tempDewpointWater temp
2018-Apr-23 21:00N 61°51' E 005°16'5 9.9
2018-Apr-23 20:29N 61°48' E 005°07'511.0
2018-Apr-23 20:00N 61°44' E 004°59'510.1
2018-Apr-23 19:29N 61°39' E 004°59'5 9.7
2018-Apr-23 18:59N 61°34' E 004°58'5 9.3
2018-Apr-23 18:30N 61°30' E 004°59'510.2
2018-Apr-23 18:00N 61°25' E 004°58'5 9.9
2018-Apr-23 17:30N 61°20' E 005°03'3 7.1
2018-Apr-23 17:00N 61°19' E 005°10'0 0.0
2018-Apr-23 16:30N 61°19' E 005°10'0 0.1
2018-Apr-23 15:59N 61°19' E 005°09'4 8.3
2018-Apr-23 15:30N 61°21' E 005°02'510.4
2018-Apr-23 15:00N 61°26' E 004°58'510.4
2018-Apr-23 14:30N 61°31' E 005°00'5 9.8
2018-Apr-23 13:59N 61°36' E 004°57'510.0
2018-Apr-23 13:29N 61°41' E 004°57'510.1
2018-Apr-23 13:00N 61°46' E 005°00'510.7
2018-Apr-23 12:30N 61°49' E 005°09'4 8.0
2018-Apr-23 12:00N 61°52' E 005°15'5 9.2
2018-Apr-23 11:29N 61°55' E 005°07'5 9.7
2018-Apr-23 11:00N 61°59' E 005°10'510.9
2018-Apr-23 10:30N 62°05' E 005°07'510.6
2018-Apr-23 10:00N 62°10' E 005°04'5 9.7
2018-Apr-23 09:29N 62°14' E 005°11'511.0
2018-Apr-23 09:00N 62°17' E 005°20'510.9
2018-Apr-23 08:30N 62°18' E 005°32'4 7.6
2018-Apr-23 07:59N 62°19' E 005°39'0 0.0
2018-Apr-23 07:30N 62°19' E 005°39'0 0.0
2018-Apr-23 06:59N 62°19' E 005°39'0 1.0
2018-Apr-23 06:30N 62°19' E 005°39'5 9.8
2018-Apr-23 05:59N 62°18' E 005°29'5 9.7
2018-Apr-23 05:30N 62°16' E 005°19'5 9.7
2018-Apr-23 05:00N 62°13' E 005°10'5 9.2
2018-Apr-23 04:30N 62°10' E 005°04'5 9.8
2018-Apr-23 04:00N 62°05' E 005°06'510.1
2018-Apr-23 03:30N 62°00' E 005°10'5 9.8
2018-Apr-23 03:00N 61°55' E 005°07'4 8.9
2018-Apr-23 02:30N 61°52' E 005°14'3 6.7
2018-Apr-23 01:59N 61°49' E 005°11'510.4
2018-Apr-23 01:30N 61°46' E 005°02'5 9.9
2018-Apr-23 00:59N 61°42' E 004°58'510.0
2018-Apr-23 00:30N 61°37' E 004°59'5 9.2
2018-Apr-22 23:58N 61°32' E 005°00'510.0
2018-Apr-22 23:30N 61°28' E 004°56'510.4
2018-Apr-22 23:00N 61°23' E 004°50'510.6
2018-Apr-22 22:30N 61°18' E 004°48'510.1
2018-Apr-22 22:00N 61°14' E 004°42'510.0
2018-Apr-22 21:30N 61°09' E 004°45'3 6.1
2018-Apr-22 21:00N 61°06' E 004°43'0 0.1
2018-Apr-22 20:30N 61°06' E 004°43'0 0.0
2018-Apr-22 20:00N 61°06' E 004°43'0 0.0
2018-Apr-22 19:30N 61°06' E 004°43'0 0.0
2018-Apr-22 19:00N 61°06' E 004°43'0 0.0
2018-Apr-22 18:30N 61°06' E 004°43'0 0.0
2018-Apr-22 18:00N 61°06' E 004°43'0 0.0
2018-Apr-22 17:30N 61°06' E 004°43'0 0.0
2018-Apr-22 17:00N 61°06' E 004°43'0 0.0
2018-Apr-22 16:30N 61°06' E 004°43'0 0.0
2018-Apr-22 15:59N 61°06' E 004°43'0 0.0
2018-Apr-22 15:30N 61°06' E 004°43'0 0.0
2018-Apr-22 15:00N 61°06' E 004°43'0 0.6
2018-Apr-22 14:30N 61°06' E 004°43'0 0.3
2018-Apr-22 14:00N 61°06' E 004°43'0 0.3
2018-Apr-22 13:30N 61°06' E 004°43'0 0.2
2018-Apr-22 13:00N 61°06' E 004°43'1 1.5
2018-Apr-22 12:30N 61°06' E 004°43'0 0.0
2018-Apr-22 12:00N 61°06' E 004°43'0 0.0
2018-Apr-22 11:29N 61°06' E 004°43'0 0.0
2018-Apr-22 10:59N 61°06' E 004°43'0 0.0
2018-Apr-22 10:30N 61°06' E 004°43'0 0.0
2018-Apr-22 10:00N 61°06' E 004°43'0 0.0
2018-Apr-22 09:30N 61°06' E 004°43'0 0.0
2018-Apr-22 09:00N 61°06' E 004°43'1 2.3
2018-Apr-22 08:30N 61°05' E 004°43'4 7.5
2018-Apr-22 08:00N 61°09' E 004°45'510.6
2018-Apr-22 07:30N 61°14' E 004°47'611.0
2018-Apr-22 06:59N 61°20' E 004°48'511.1
2018-Apr-22 06:29N 61°25' E 004°51'611.4
2018-Apr-22 06:00N 61°29' E 004°59'510.2
2018-Apr-22 05:30N 61°34' E 004°58'510.4
2018-Apr-22 05:00N 61°40' E 004°58'510.5
2018-Apr-22 04:30N 61°45' E 004°59'611.4
2018-Apr-22 04:00N 61°48' E 005°08'5 9.5
2018-Apr-22 03:30N 61°52' E 005°15'510.4
2018-Apr-22 03:00N 61°55' E 005°07'611.0
2018-Apr-22 02:30N 62°01' E 005°09'611.0
2018-Apr-22 02:00N 62°06' E 005°06'510.2
2018-Apr-22 01:30N 62°11' E 005°05'510.1
2018-Apr-22 01:00N 62°15' E 005°13'510.6
2018-Apr-22 00:29N 62°17' E 005°23'510.6
2018-Apr-22 00:00N 62°18' E 005°34'3 5.6
2018-Apr-21 23:30N 62°19' E 005°39'0 0.0
2018-Apr-21 23:00N 62°19' E 005°39'0 0.0
2018-Apr-21 22:30N 62°19' E 005°39'4 7.2
2018-Apr-21 22:00N 62°18' E 005°32'5 9.5
2018-Apr-21 21:30N 62°17' E 005°22'5 9.4
2018-Apr-21 21:00N 62°14' E 005°13'5 9.3
2018-Apr-21 20:30N 62°12' E 005°05'4 8.9
2018-Apr-21 20:00N 62°07' E 005°05'5 9.2
2018-Apr-21 19:30N 62°03' E 005°08'5 9.4
2018-Apr-21 19:00N 61°58' E 005°09'4 8.5
2018-Apr-21 18:30N 61°54' E 005°08'4 8.8
2018-Apr-21 18:00N 61°51' E 005°16'4 8.5
2018-Apr-21 17:30N 61°49' E 005°09'5 9.8
2018-Apr-21 17:00N 61°46' E 005°01'5 9.3
2018-Apr-21 16:30N 61°41' E 004°58'5 9.4
2018-Apr-21 16:00N 61°37' E 004°58'4 8.5
2018-Apr-21 15:29N 61°32' E 005°00'5 9.3
2018-Apr-21 15:00N 61°28' E 004°57'5 9.7
2018-Apr-21 14:30N 61°24' E 004°51'5 9.6
2018-Apr-21 14:00N 61°20' E 004°48'5 9.5
2018-Apr-21 13:30N 61°15' E 004°44'5 9.3
2018-Apr-21 13:00N 61°11' E 004°44'5 9.7
2018-Apr-21 12:30N 61°06' E 004°44'1 1.8
2018-Apr-21 12:00N 61°06' E 004°43'0 0.0
2018-Apr-21 11:30N 61°06' E 004°43'0 0.0
2018-Apr-21 11:00N 61°06' E 004°43'0 0.0
2018-Apr-21 10:30N 61°06' E 004°43'0 0.0
2018-Apr-21 10:00N 61°06' E 004°43'0 0.0
2018-Apr-21 09:30N 61°06' E 004°43'0 0.0
2018-Apr-21 09:00N 61°06' E 004°43'0 0.0
2018-Apr-21 08:29N 61°06' E 004°43'0 0.0
2018-Apr-21 08:00N 61°06' E 004°43'0 0.0
2018-Apr-21 07:30N 61°06' E 004°43'0 0.9
2018-Apr-21 06:59N 61°06' E 004°43'0 0.2
2018-Apr-21 06:30N 61°06' E 004°43'0 0.2
2018-Apr-21 06:00N 61°06' E 004°43'0 0.1
2018-Apr-21 05:30N 61°06' E 004°43'0 0.9
2018-Apr-21 04:59N 61°06' E 004°43'0 0.0
2018-Apr-21 04:30N 61°06' E 004°43'0 0.0
2018-Apr-21 04:00N 61°06' E 004°43'0 0.0
2018-Apr-21 03:30N 61°06' E 004°43'0 0.0
2018-Apr-21 03:00N 61°06' E 004°43'0 0.0
2018-Apr-21 02:30N 61°06' E 004°43'0 0.0
2018-Apr-21 02:00N 61°06' E 004°43'0 0.0
2018-Apr-21 01:30N 61°06' E 004°43'0 0.0
2018-Apr-21 01:00N 61°06' E 004°43'0 0.0
2018-Apr-21 00:30N 61°06' E 004°43'0 0.0
2018-Apr-21 00:00N 61°06' E 004°43'0 0.0
2018-Apr-20 23:30N 61°06' E 004°43'0 0.0
2018-Apr-20 23:00N 61°06' E 004°43'0 0.0
2018-Apr-20 22:30N 61°06' E 004°43'0 0.0
2018-Apr-20 21:59N 61°06' E 004°43'0 0.0
2018-Apr-20 21:30N 61°06' E 004°43'0 0.0
2018-Apr-20 20:59N 61°06' E 004°43'0 0.0
2018-Apr-20 20:30N 61°06' E 004°43'1 1.1
2018-Apr-20 20:00N 61°06' E 004°43'0 0.3
2018-Apr-20 19:30N 61°06' E 004°43'0 0.3
2018-Apr-20 19:00N 61°06' E 004°43'0 0.3
2018-Apr-20 18:30N 61°06' E 004°43'0 0.1
2018-Apr-20 17:59N 61°06' E 004°43'0 0.3
2018-Apr-20 17:30N 61°06' E 004°43'0 0.0
2018-Apr-20 17:00N 61°06' E 004°43'1 2.6
2018-Apr-20 16:30N 61°07' E 004°44'510.7
2018-Apr-20 16:00N 61°12' E 004°43'510.1
2018-Apr-20 15:30N 61°17' E 004°47'510.6
2018-Apr-20 15:00N 61°22' E 004°49'610.7
2018-Apr-20 14:29N 61°27' E 004°54'510.6
2018-Apr-20 14:00N 61°31' E 005°00'510.3
2018-Apr-20 13:30N 61°36' E 004°58'510.5
2018-Apr-20 13:00N 61°41' E 004°57'510.0
2018-Apr-20 12:30N 61°46' E 005°02'511.0
2018-Apr-20 12:00N 61°49' E 005°11'3 6.6
2018-Apr-20 11:30N 61°52' E 005°13'5 9.1
2018-Apr-20 10:59N 61°57' E 005°08'510.7
2018-Apr-20 10:30N 62°02' E 005°09'511.0
2018-Apr-20 10:00N 62°07' E 005°05'5 9.7
2018-Apr-20 09:30N 62°12' E 005°05'510.2
2018-Apr-20 09:00N 62°15' E 005°14'510.6
2018-Apr-20 08:30N 62°17' E 005°24'510.3
2018-Apr-20 08:00N 62°18' E 005°35'2 4.4
2018-Apr-20 07:28N 62°19' E 005°39'0 0.1
2018-Apr-20 06:59N 62°19' E 005°39'0 0.8
2018-Apr-20 06:30N 62°19' E 005°40'510.3
2018-Apr-20 06:00N 62°18' E 005°29'510.3
2018-Apr-20 05:30N 62°16' E 005°19'510.3
2018-Apr-20 05:00N 62°13' E 005°09'5 9.5
2018-Apr-20 04:30N 62°09' E 005°04'510.3
2018-Apr-20 04:00N 62°04' E 005°07'510.3
2018-Apr-20 03:30N 61°59' E 005°10'5 9.8
2018-Apr-20 03:00N 61°54' E 005°08'5 9.4
2018-Apr-20 02:30N 61°52' E 005°16'5 8.9
2018-Apr-20 02:00N 61°49' E 005°09'510.9
2018-Apr-20 01:30N 61°45' E 005°00'510.2
2018-Apr-20 01:00N 61°40' E 004°58'5 9.7
2018-Apr-20 00:30N 61°35' E 004°57'5 9.5
2018-Apr-20 00:00N 61°31' E 005°00'510.4
2018-Apr-19 23:30N 61°26' E 004°54'610.9
2018-Apr-19 22:59N 61°21' E 004°49'510.7
2018-Apr-19 22:30N 61°16' E 004°46'5 9.9
2018-Apr-19 21:59N 61°11' E 004°43'510.5
2018-Apr-19 21:30N 61°06' E 004°45'1 1.9
2018-Apr-19 20:59N 61°06' E 004°43'0 0.0
2018-Apr-19 20:29N 61°06' E 004°43'0 0.0
2018-Apr-19 19:58N 61°06' E 004°43'0 0.0
2018-Apr-19 19:30N 61°06' E 004°43'0 0.0
2018-Apr-19 19:00N 61°06' E 004°43'0 0.0
2018-Apr-19 18:30N 61°06' E 004°43'0 0.0
2018-Apr-19 18:00N 61°06' E 004°43'0 0.4
2018-Apr-19 17:30N 61°06' E 004°43'0 0.1
2018-Apr-19 17:00N 61°06' E 004°43'1 1.0
2018-Apr-19 16:30N 61°05' E 004°43'0 0.1
2018-Apr-19 16:00N 61°05' E 004°43'1 1.5
2018-Apr-19 15:30N 61°06' E 004°43'0 0.0
2018-Apr-19 15:00N 61°06' E 004°43'0 0.0
2018-Apr-19 14:30N 61°06' E 004°43'0 0.0
2018-Apr-19 14:00N 61°06' E 004°43'0 0.0
2018-Apr-19 13:30N 61°06' E 004°43'0 0.0
2018-Apr-19 13:00N 61°06' E 004°43'0 0.0
2018-Apr-19 12:30N 61°06' E 004°43'0 0.0
2018-Apr-19 12:00N 61°06' E 004°43'0 0.0
2018-Apr-19 11:30N 61°06' E 004°43'0 0.4
2018-Apr-19 11:00N 61°06' E 004°43'1 1.2
2018-Apr-19 10:28N 61°05' E 004°43'0 0.4
2018-Apr-19 10:00N 61°05' E 004°43'0 0.8
2018-Apr-19 09:30N 61°05' E 004°43'1 1.0
2018-Apr-19 09:00N 61°05' E 004°43'0 0.7
2018-Apr-19 08:30N 61°04' E 004°43'1 1.1
2018-Apr-19 08:00N 61°05' E 004°43'1 1.1
2018-Apr-19 07:30N 61°05' E 004°43'1 1.0
2018-Apr-19 07:00N 61°05' E 004°43'0 0.2
2018-Apr-19 06:30N 61°05' E 004°43'0 0.6
2018-Apr-19 06:00N 61°05' E 004°43'0 0.2
2018-Apr-19 05:30N 61°05' E 004°43'3 5.6
2018-Apr-19 05:00N 61°08' E 004°45'510.0
2018-Apr-19 04:30N 61°13' E 004°42'5 9.7
2018-Apr-19 04:00N 61°17' E 004°47'5 9.3
2018-Apr-19 03:30N 61°22' E 004°48'5 9.6
2018-Apr-19 03:00N 61°26' E 004°52'5 9.0
2018-Apr-19 02:30N 61°29' E 004°59'5 9.3
2018-Apr-19 02:00N 61°34' E 004°59'5 9.3
2018-Apr-19 01:30N 61°39' E 004°59'5 9.9
2018-Apr-19 01:00N 61°43' E 004°58'510.1
2018-Apr-19 00:30N 61°47' E 005°05'510.8
2018-Apr-19 00:00N 61°50' E 005°15'4 7.5
2018-Apr-18 23:30N 61°53' E 005°10'5 9.3
2018-Apr-18 23:00N 61°58' E 005°09'5 9.8
2018-Apr-18 22:29N 62°02' E 005°08'510.0
2018-Apr-18 22:00N 62°07' E 005°05'5 8.8
2018-Apr-18 21:28N 62°12' E 005°05'4 9.3
2018-Apr-18 21:00N 62°15' E 005°13'5 9.5
2018-Apr-18 20:30N 62°17' E 005°22'5 9.5
2018-Apr-18 20:00N 62°18' E 005°32'4 7.7
2018-Apr-18 19:30N 62°19' E 005°39'0 0.1
2018-Apr-18 19:00N 62°19' E 005°39'0 0.0
2018-Apr-18 18:30N 62°19' E 005°39'0 0.0
2018-Apr-18 18:00N 62°19' E 005°39'0 0.0
2018-Apr-18 17:30N 62°19' E 005°39'0 0.0
2018-Apr-18 17:00N 62°19' E 005°39'0 0.0
2018-Apr-18 16:30N 62°19' E 005°39'0 0.0
2018-Apr-18 16:00N 62°19' E 005°39'0 0.0
2018-Apr-18 15:30N 62°19' E 005°39'0 0.0
2018-Apr-18 15:00N 62°19' E 005°39'0 0.0
2018-Apr-18 14:30N 62°19' E 005°39'0 0.0
2018-Apr-18 14:00N 62°19' E 005°39'0 0.0
2018-Apr-18 13:30N 62°19' E 005°39'0 0.0
2018-Apr-18 13:00N 62°19' E 005°39'0 0.0
2018-Apr-18 12:30N 62°19' E 005°39'0 0.0
2018-Apr-18 11:59N 62°19' E 005°39'0 0.0
2018-Apr-18 11:30N 62°19' E 005°39'0 0.0
2018-Apr-18 11:00N 62°19' E 005°39'0 0.0
2018-Apr-18 10:29N 62°19' E 005°39'0 0.0
2018-Apr-18 10:00N 62°19' E 005°39'0 0.0
2018-Apr-18 09:29N 62°19' E 005°39'0 0.0
2018-Apr-18 08:59N 62°19' E 005°39'0 0.0
2018-Apr-18 08:30N 62°19' E 005°39'0 0.0
2018-Apr-18 08:00N 62°19' E 005°39'0 0.0
2018-Apr-18 07:30N 62°19' E 005°39'0 0.0
2018-Apr-18 07:00N 62°19' E 005°39'0 0.0
2018-Apr-18 06:30N 62°19' E 005°39'0 0.0
2018-Apr-18 06:00N 62°19' E 005°39'0 0.0
2018-Apr-18 05:30N 62°19' E 005°39'0 0.0
2018-Apr-18 05:00N 62°19' E 005°39'0 0.0
2018-Apr-18 04:30N 62°19' E 005°39'0 0.0
2018-Apr-18 04:00N 62°19' E 005°39'0 0.0
2018-Apr-18 03:30N 62°19' E 005°39'0 0.0
2018-Apr-18 03:00N 62°19' E 005°39'0 0.0
2018-Apr-18 02:30N 62°19' E 005°39'0 0.0
2018-Apr-18 02:00N 62°19' E 005°39'0 0.0
2018-Apr-18 01:30N 62°19' E 005°39'0 0.0
2018-Apr-18 01:00N 62°19' E 005°39'0 0.0
2018-Apr-18 00:30N 62°19' E 005°39'0 0.0
2018-Apr-18 00:00N 62°19' E 005°39'0 0.0
2018-Apr-17 23:30N 62°19' E 005°39'0 0.0
2018-Apr-17 23:00N 62°19' E 005°39'0 0.0
2018-Apr-17 22:29N 62°19' E 005°39'0 0.0
2018-Apr-17 22:00N 62°19' E 005°39'0 0.0
2018-Apr-17 21:30N 62°19' E 005°39'0 0.0
2018-Apr-17 21:00N 62°19' E 005°39'0 0.0
2018-Apr-17 20:30N 62°19' E 005°39'0 0.0
2018-Apr-17 20:00N 62°19' E 005°39'0 0.0
2018-Apr-17 19:30N 62°19' E 005°39'0 0.1
2018-Apr-17 19:00N 62°19' E 005°39'0 0.0
2018-Apr-17 18:30N 62°19' E 005°39'0 0.0
2018-Apr-17 18:01N 62°19' E 005°39'2 4.4
2018-Apr-17 17:30N 62°18' E 005°35'5 9.3
2018-Apr-17 17:00N 62°14' E 005°31'5 9.1
2018-Apr-17 16:30N 62°11' E 005°38'510.1
2018-Apr-17 16:00N 62°12' E 005°48'3 5.8
2018-Apr-17 15:30N 62°12' E 005°54'0 0.0
2018-Apr-17 15:00N 62°12' E 005°54'0 0.0
2018-Apr-17 14:30N 62°12' E 005°54'1 2.7
2018-Apr-17 14:00N 62°13' E 005°52'511.0
2018-Apr-17 13:30N 62°11' E 005°41'5 9.2
2018-Apr-17 13:00N 62°13' E 005°32'5 9.9
2018-Apr-17 12:30N 62°18' E 005°33'3 6.8
2018-Apr-17 12:00N 62°19' E 005°39'0 0.0
2018-Apr-17 11:30N 62°19' E 005°39'0 0.0
2018-Apr-17 10:59N 62°19' E 005°39'1 2.4
2018-Apr-17 10:29N 62°19' E 005°37'5 9.3
2018-Apr-17 10:00N 62°15' E 005°31'5 9.5
2018-Apr-17 09:30N 62°11' E 005°35'510.2
2018-Apr-17 08:59N 62°12' E 005°46'4 8.4
2018-Apr-17 08:30N 62°12' E 005°55'0 0.7
2018-Apr-17 08:00N 62°12' E 005°54'0 0.0
2018-Apr-17 07:30N 62°12' E 005°54'0 0.0
2018-Apr-17 07:00N 62°12' E 005°54'0 0.0
2018-Apr-17 06:30N 62°12' E 005°54'0 0.0
2018-Apr-17 06:00N 62°12' E 005°54'0 0.8
2018-Apr-17 05:30N 62°12' E 005°55'0 0.5
2018-Apr-17 05:00N 62°12' E 005°55'1 2.4
2018-Apr-17 04:29N 62°12' E 005°52'510.8
2018-Apr-17 04:00N 62°11' E 005°41'5 9.5
2018-Apr-17 03:30N 62°13' E 005°32'510.2
2018-Apr-17 03:00N 62°18' E 005°33'3 6.7
2018-Apr-17 02:30N 62°19' E 005°39'0 0.0
2018-Apr-17 01:59N 62°19' E 005°39'0 0.0
2018-Apr-17 01:30N 62°19' E 005°39'0 0.0
2018-Apr-17 01:00N 62°19' E 005°39'0 0.0
2018-Apr-17 00:30N 62°19' E 005°39'0 0.0
2018-Apr-17 00:00N 62°19' E 005°39'0 0.0
2018-Apr-16 23:30N 62°19' E 005°39'0 0.0
2018-Apr-16 23:00N 62°19' E 005°39'0 0.0
2018-Apr-16 22:30N 62°19' E 005°39'0 0.0
2018-Apr-16 22:00N 62°19' E 005°39'0 0.0
2018-Apr-16 21:30N 62°19' E 005°39'0 0.0
2018-Apr-16 20:59N 62°19' E 005°39'0 0.1
2018-Apr-16 20:30N 62°19' E 005°39'4 7.7
2018-Apr-16 19:59N 62°18' E 005°31'5 9.5
2018-Apr-16 19:30N 62°17' E 005°22'5 9.6
2018-Apr-16 19:00N 62°14' E 005°13'5 9.8
2018-Apr-16 18:30N 62°11' E 005°05'5 9.5
2018-Apr-16 18:00N 62°07' E 005°06'5 9.3
2018-Apr-16 17:30N 62°04' E 005°14'4 8.2
2018-Apr-16 17:00N 62°01' E 005°20'0 0.0
2018-Apr-16 16:30N 62°01' E 005°20'1 1.1
2018-Apr-16 16:00N 62°01' E 005°19'510.7
2018-Apr-16 15:30N 62°05' E 005°11'510.2
2018-Apr-16 15:00N 62°09' E 005°04'5 9.7
2018-Apr-16 14:30N 62°13' E 005°09'610.8
2018-Apr-16 13:59N 62°16' E 005°19'510.7
2018-Apr-16 13:30N 62°18' E 005°29'510.1
2018-Apr-16 13:00N 62°19' E 005°40'0 0.7
2018-Apr-16 12:30N 62°19' E 005°39'0 0.1
2018-Apr-16 12:00N 62°19' E 005°39'0 0.0
2018-Apr-16 11:30N 62°19' E 005°39'3 5.5
2018-Apr-16 11:00N 62°18' E 005°34'5 9.4
2018-Apr-16 10:30N 62°17' E 005°24'5 9.8
2018-Apr-16 10:00N 62°15' E 005°15'510.2
2018-Apr-16 09:30N 62°12' E 005°06'5 9.4
2018-Apr-16 09:00N 62°07' E 005°05'5 9.4
2018-Apr-16 08:30N 62°04' E 005°13'5 9.5
2018-Apr-16 08:00N 62°01' E 005°20'0 0.1
2018-Apr-16 07:30N 62°01' E 005°20'0 0.0
2018-Apr-16 06:59N 62°01' E 005°20'2 4.1
2018-Apr-16 06:30N 62°02' E 005°17'510.8
2018-Apr-16 06:00N 62°05' E 005°08'510.5
2018-Apr-16 05:30N 62°10' E 005°04'510.3
2018-Apr-16 05:00N 62°14' E 005°11'510.9
2018-Apr-16 04:30N 62°17' E 005°21'610.9
2018-Apr-16 04:00N 62°18' E 005°33'3 6.5
2018-Apr-16 03:29N 62°19' E 005°39'0 0.0
2018-Apr-16 03:00N 62°19' E 005°39'0 0.0
2018-Apr-16 02:30N 62°19' E 005°39'0 0.0
2018-Apr-16 02:00N 62°19' E 005°39'0 0.0
2018-Apr-16 01:30N 62°19' E 005°39'0 0.0
2018-Apr-16 01:00N 62°19' E 005°39'0 0.0
2018-Apr-16 00:30N 62°19' E 005°39'0 0.0
2018-Apr-16 00:00N 62°19' E 005°39'0 0.0
2018-Apr-15 23:30N 62°19' E 005°39'0 0.0
2018-Apr-15 23:00N 62°19' E 005°39'0 0.0
2018-Apr-15 22:29N 62°19' E 005°39'0 0.0
2018-Apr-15 21:59N 62°19' E 005°39'0 0.0
2018-Apr-15 21:30N 62°19' E 005°39'0 0.0
2018-Apr-15 21:00N 62°19' E 005°39'1 2.3
2018-Apr-15 20:30N 62°19' E 005°37'5 9.6
2018-Apr-15 20:00N 62°18' E 005°27'5 9.6
2018-Apr-15 19:30N 62°16' E 005°18'5 9.7
2018-Apr-15 18:58N 62°13' E 005°08'4 8.8
2018-Apr-15 18:30N 62°09' E 005°04'5 9.1
2018-Apr-15 18:00N 62°05' E 005°08'5 9.7
2018-Apr-15 17:30N 62°02' E 005°17'2 4.3
2018-Apr-15 17:00N 62°01' E 005°20'0 0.0
2018-Apr-15 16:30N 62°01' E 005°20'0 0.0
2018-Apr-15 16:00N 62°01' E 005°20'1 1.1
2018-Apr-15 15:30N 62°00' E 005°19'4 8.4
2018-Apr-15 15:00N 61°59' E 005°10'510.2
2018-Apr-15 14:30N 61°54' E 005°08'510.0
2018-Apr-15 14:00N 61°51' E 005°16'510.2
2018-Apr-15 13:30N 61°48' E 005°07'611.5
2018-Apr-15 13:00N 61°44' E 004°59'610.7
2018-Apr-15 12:29N 61°39' E 004°59'3 6.4
2018-Apr-15 12:00N 61°36' E 005°02'0 0.0
2018-Apr-15 11:30N 61°36' E 005°02'0 0.0
2018-Apr-15 11:00N 61°36' E 005°02'1 2.3
2018-Apr-15 10:30N 61°36' E 004°60'3 6.9
2018-Apr-15 10:00N 61°33' E 004°59'0 0.7
2018-Apr-15 09:30N 61°33' E 004°58'0 0.0
2018-Apr-15 09:00N 61°33' E 004°58'0 0.0
2018-Apr-15 08:30N 61°33' E 004°58'0 0.0
2018-Apr-15 08:00N 61°33' E 004°58'2 4.6
2018-Apr-15 07:30N 61°35' E 004°57'3 5.2
2018-Apr-15 07:00N 61°36' E 005°02'0 0.0
2018-Apr-15 06:30N 61°36' E 005°02'0 0.0
2018-Apr-15 06:00N 61°36' E 005°02'0 0.0
2018-Apr-15 05:29N 61°36' E 005°02'0 0.0
2018-Apr-15 05:00N 61°36' E 005°02'0 0.0
2018-Apr-15 04:30N 61°36' E 005°02'0 0.0
2018-Apr-15 04:00N 61°36' E 005°02'0 0.0
2018-Apr-15 03:30N 61°36' E 005°02'0 0.0
2018-Apr-15 03:00N 61°36' E 005°02'0 0.0
2018-Apr-15 02:29N 61°36' E 005°02'0 0.0
2018-Apr-15 02:00N 61°36' E 005°02'0 0.0
2018-Apr-15 01:30N 61°36' E 005°02'0 0.0
2018-Apr-15 01:00N 61°36' E 005°02'0 0.0
2018-Apr-15 00:30N 61°36' E 005°02'0 0.0
2018-Apr-14 23:59N 61°36' E 005°02'0 0.0
2018-Apr-14 23:30N 61°36' E 005°02'0 0.0
2018-Apr-14 23:00N 61°36' E 005°02'0 0.0
2018-Apr-14 22:30N 61°36' E 005°02'0 0.0
2018-Apr-14 22:00N 61°36' E 005°02'0 0.0
2018-Apr-14 21:30N 61°36' E 005°02'0 0.0
2018-Apr-14 21:00N 61°36' E 005°02'0 0.0
2018-Apr-14 20:30N 61°36' E 005°02'3 6.7
2018-Apr-14 20:00N 61°39' E 004°59'510.4
2018-Apr-14 19:30N 61°44' E 004°59'611.0
2018-Apr-14 18:59N 61°48' E 005°07'5 9.9
2018-Apr-14 18:30N 61°51' E 005°16'5 9.2
2018-Apr-14 18:00N 61°54' E 005°09'2 4.0
2018-Apr-14 17:30N 61°56' E 005°08'0 0.0
2018-Apr-14 17:00N 61°56' E 005°08'0 0.0
2018-Apr-14 16:29N 61°56' E 005°08'3 6.0
2018-Apr-14 16:00N 61°59' E 005°09'510.8
2018-Apr-14 15:30N 62°04' E 005°07'611.3
2018-Apr-14 14:59N 62°10' E 005°04'510.8
2018-Apr-14 14:30N 62°14' E 005°10'611.6
2018-Apr-14 14:00N 62°17' E 005°21'611.3
2018-Apr-14 13:29N 62°18' E 005°33'511.3
2018-Apr-14 13:00N 62°19' E 005°45'3 5.9
2018-Apr-14 12:30N 62°22' E 005°48'510.4
2018-Apr-14 12:00N 62°26' E 005°55'510.9
2018-Apr-14 11:30N 62°29' E 006°05'510.5
2018-Apr-14 11:01N 62°33' E 006°10'611.4
2018-Apr-14 10:29N 62°37' E 006°19'511.2
2018-Apr-14 10:00N 62°42' E 006°27'510.9
2018-Apr-14 09:30N 62°47' E 006°30'1 1.2
2018-Apr-14 09:00N 62°47' E 006°31'510.9
2018-Apr-14 08:30N 62°46' E 006°43'510.4
2018-Apr-14 08:00N 62°46' E 006°54'1 2.5
2018-Apr-14 07:30N 62°47' E 006°56'0 0.0
2018-Apr-14 07:00N 62°47' E 006°56'0 0.2
2018-Apr-14 06:30N 62°47' E 006°55'0 0.2
2018-Apr-14 06:00N 62°47' E 006°55'0 0.0
2018-Apr-14 05:30N 62°47' E 006°55'0 0.1
2018-Apr-14 05:00N 62°47' E 006°55'0 0.0
2018-Apr-14 04:29N 62°47' E 006°55'0 0.0
2018-Apr-14 03:59N 62°47' E 006°55'0 0.0
2018-Apr-14 03:30N 62°47' E 006°55'1 1.4
2018-Apr-14 03:00N 62°46' E 006°55'510.2
2018-Apr-14 02:30N 62°45' E 006°44'510.1
2018-Apr-14 02:00N 62°43' E 006°34'510.5
2018-Apr-14 01:30N 62°39' E 006°26'510.2
2018-Apr-14 01:00N 62°36' E 006°17'3 6.8
2018-Apr-14 00:30N 62°34' E 006°11'4 7.6
2018-Apr-14 00:00N 62°31' E 006°09'5 9.7
2018-Apr-13 23:30N 62°27' E 006°03'5 9.5
2018-Apr-13 22:59N 62°22' E 006°07'4 8.8
2018-Apr-13 22:30N 62°18' E 006°03'510.0
2018-Apr-13 21:59N 62°14' E 005°56'5 9.5
2018-Apr-13 21:29N 62°10' E 005°58'  
Track history (hours):
 
Tides and Currents Weather Stations Pressure Air Temp Water Temp Dewpoint Dewpoint Depression Visibility Wind Speed Wind Dir Waves Ship Positions

Ro Fjord

Last reported at 2018-Apr-23 21:00 UTC. Time now 2018-Apr-23 21:18 UTC.
Position N 61°51' E 005°16'.

Length 72 m; draft 6.4 m.

Type: Ship. MMSI: 257430000.

Date/timePositionNaut miles runAvg speedWind from/ knotsBaromVisibWave heightAir tempDewpointWater temp
2018-Apr-23 21:00N 61°51' E 005°16'5 9.9
2018-Apr-23 20:29N 61°48' E 005°07'511.0
2018-Apr-23 20:00N 61°44' E 004°59'510.1
2018-Apr-23 19:29N 61°39' E 004°59'5 9.7
2018-Apr-23 18:59N 61°34' E 004°58'5 9.3
2018-Apr-23 18:30N 61°30' E 004°59'510.2
2018-Apr-23 18:00N 61°25' E 004°58'5 9.9
2018-Apr-23 17:30N 61°20' E 005°03'3 7.1
2018-Apr-23 17:00N 61°19' E 005°10'0 0.0
2018-Apr-23 16:30N 61°19' E 005°10'0 0.1
2018-Apr-23 15:59N 61°19' E 005°09'4 8.3
2018-Apr-23 15:30N 61°21' E 005°02'510.4
2018-Apr-23 15:00N 61°26' E 004°58'510.4
2018-Apr-23 14:30N 61°31' E 005°00'5 9.8
2018-Apr-23 13:59N 61°36' E 004°57'510.0
2018-Apr-23 13:29N 61°41' E 004°57'510.1
2018-Apr-23 13:00N 61°46' E 005°00'510.7
2018-Apr-23 12:30N 61°49' E 005°09'4 8.0
2018-Apr-23 12:00N 61°52' E 005°15'5 9.2
2018-Apr-23 11:29N 61°55' E 005°07'5 9.7
2018-Apr-23 11:00N 61°59' E 005°10'510.9
2018-Apr-23 10:30N 62°05' E 005°07'510.6
2018-Apr-23 10:00N 62°10' E 005°04'5 9.7
2018-Apr-23 09:29N 62°14' E 005°11'511.0
2018-Apr-23 09:00N 62°17' E 005°20'510.9
2018-Apr-23 08:30N 62°18' E 005°32'4 7.6
2018-Apr-23 07:59N 62°19' E 005°39'0 0.0
2018-Apr-23 07:30N 62°19' E 005°39'0 0.0
2018-Apr-23 06:59N 62°19' E 005°39'0 1.0
2018-Apr-23 06:30N 62°19' E 005°39'5 9.8
2018-Apr-23 05:59N 62°18' E 005°29'5 9.7
2018-Apr-23 05:30N 62°16' E 005°19'5 9.7
2018-Apr-23 05:00N 62°13' E 005°10'5 9.2
2018-Apr-23 04:30N 62°10' E 005°04'5 9.8
2018-Apr-23 04:00N 62°05' E 005°06'510.1
2018-Apr-23 03:30N 62°00' E 005°10'5 9.8
2018-Apr-23 03:00N 61°55' E 005°07'4 8.9
2018-Apr-23 02:30N 61°52' E 005°14'3 6.7
2018-Apr-23 01:59N 61°49' E 005°11'510.4
2018-Apr-23 01:30N 61°46' E 005°02'5 9.9
2018-Apr-23 00:59N 61°42' E 004°58'510.0
2018-Apr-23 00:30N 61°37' E 004°59'5 9.2
2018-Apr-22 23:58N 61°32' E 005°00'510.0
2018-Apr-22 23:30N 61°28' E 004°56'510.4
2018-Apr-22 23:00N 61°23' E 004°50'510.6
2018-Apr-22 22:30N 61°18' E 004°48'510.1
2018-Apr-22 22:00N 61°14' E 004°42'510.0
2018-Apr-22 21:30N 61°09' E 004°45'3 6.1
2018-Apr-22 21:00N 61°06' E 004°43'0 0.1
2018-Apr-22 20:30N 61°06' E 004°43'0 0.0
2018-Apr-22 20:00N 61°06' E 004°43'0 0.0
2018-Apr-22 19:30N 61°06' E 004°43'0 0.0
2018-Apr-22 19:00N 61°06' E 004°43'0 0.0
2018-Apr-22 18:30N 61°06' E 004°43'0 0.0
2018-Apr-22 18:00N 61°06' E 004°43'0 0.0
2018-Apr-22 17:30N 61°06' E 004°43'0 0.0
2018-Apr-22 17:00N 61°06' E 004°43'0 0.0
2018-Apr-22 16:30N 61°06' E 004°43'0 0.0
2018-Apr-22 15:59N 61°06' E 004°43'0 0.0
2018-Apr-22 15:30N 61°06' E 004°43'0 0.0
2018-Apr-22 15:00N 61°06' E 004°43'0 0.6
2018-Apr-22 14:30N 61°06' E 004°43'0 0.3
2018-Apr-22 14:00N 61°06' E 004°43'0 0.3
2018-Apr-22 13:30N 61°06' E 004°43'0 0.2
2018-Apr-22 13:00N 61°06' E 004°43'1 1.5
2018-Apr-22 12:30N 61°06' E 004°43'0 0.0
2018-Apr-22 12:00N 61°06' E 004°43'0 0.0
2018-Apr-22 11:29N 61°06' E 004°43'0 0.0
2018-Apr-22 10:59N 61°06' E 004°43'0 0.0
2018-Apr-22 10:30N 61°06' E 004°43'0 0.0
2018-Apr-22 10:00N 61°06' E 004°43'0 0.0
2018-Apr-22 09:30N 61°06' E 004°43'0 0.0
2018-Apr-22 09:00N 61°06' E 004°43'1 2.3
2018-Apr-22 08:30N 61°05' E 004°43'4 7.5
2018-Apr-22 08:00N 61°09' E 004°45'510.6
2018-Apr-22 07:30N 61°14' E 004°47'611.0
2018-Apr-22 06:59N 61°20' E 004°48'511.1
2018-Apr-22 06:29N 61°25' E 004°51'611.4
2018-Apr-22 06:00N 61°29' E 004°59'510.2
2018-Apr-22 05:30N 61°34' E 004°58'510.4
2018-Apr-22 05:00N 61°40' E 004°58'510.5
2018-Apr-22 04:30N 61°45' E 004°59'611.4
2018-Apr-22 04:00N 61°48' E 005°08'5 9.5
2018-Apr-22 03:30N 61°52' E 005°15'510.4
2018-Apr-22 03:00N 61°55' E 005°07'611.0
2018-Apr-22 02:30N 62°01' E 005°09'611.0
2018-Apr-22 02:00N 62°06' E 005°06'510.2
2018-Apr-22 01:30N 62°11' E 005°05'510.1
2018-Apr-22 01:00N 62°15' E 005°13'510.6
2018-Apr-22 00:29N 62°17' E 005°23'510.6
2018-Apr-22 00:00N 62°18' E 005°34'3 5.6
2018-Apr-21 23:30N 62°19' E 005°39'0 0.0
2018-Apr-21 23:00N 62°19' E 005°39'0 0.0
2018-Apr-21 22:30N 62°19' E 005°39'4 7.2
2018-Apr-21 22:00N 62°18' E 005°32'5 9.5
2018-Apr-21 21:30N 62°17' E 005°22'5 9.4
2018-Apr-21 21:00N 62°14' E 005°13'5 9.3
2018-Apr-21 20:30N 62°12' E 005°05'4 8.9
2018-Apr-21 20:00N 62°07' E 005°05'5 9.2
2018-Apr-21 19:30N 62°03' E 005°08'5 9.4
2018-Apr-21 19:00N 61°58' E 005°09'4 8.5
2018-Apr-21 18:30N 61°54' E 005°08'4 8.8
2018-Apr-21 18:00N 61°51' E 005°16'4 8.5
2018-Apr-21 17:30N 61°49' E 005°09'5 9.8
2018-Apr-21 17:00N 61°46' E 005°01'5 9.3
2018-Apr-21 16:30N 61°41' E 004°58'5 9.4
2018-Apr-21 16:00N 61°37' E 004°58'4 8.5
2018-Apr-21 15:29N 61°32' E 005°00'5 9.3
2018-Apr-21 15:00N 61°28' E 004°57'5 9.7
2018-Apr-21 14:30N 61°24' E 004°51'5 9.6
2018-Apr-21 14:00N 61°20' E 004°48'5 9.5
2018-Apr-21 13:30N 61°15' E 004°44'5 9.3
2018-Apr-21 13:00N 61°11' E 004°44'5 9.7
2018-Apr-21 12:30N 61°06' E 004°44'1 1.8
2018-Apr-21 12:00N 61°06' E 004°43'0 0.0
2018-Apr-21 11:30N 61°06' E 004°43'0 0.0
2018-Apr-21 11:00N 61°06' E 004°43'0 0.0
2018-Apr-21 10:30N 61°06' E 004°43'0 0.0
2018-Apr-21 10:00N 61°06' E 004°43'0 0.0
2018-Apr-21 09:30N 61°06' E 004°43'0 0.0
2018-Apr-21 09:00N 61°06' E 004°43'0 0.0
2018-Apr-21 08:29N 61°06' E 004°43'0 0.0
2018-Apr-21 08:00N 61°06' E 004°43'0 0.0
2018-Apr-21 07:30N 61°06' E 004°43'0 0.9
2018-Apr-21 06:59N 61°06' E 004°43'0 0.2
2018-Apr-21 06:30N 61°06' E 004°43'0 0.2
2018-Apr-21 06:00N 61°06' E 004°43'0 0.1
2018-Apr-21 05:30N 61°06' E 004°43'0 0.9
2018-Apr-21 04:59N 61°06' E 004°43'0 0.0
2018-Apr-21 04:30N 61°06' E 004°43'0 0.0
2018-Apr-21 04:00N 61°06' E 004°43'0 0.0
2018-Apr-21 03:30N 61°06' E 004°43'0 0.0
2018-Apr-21 03:00N 61°06' E 004°43'0 0.0
2018-Apr-21 02:30N 61°06' E 004°43'0 0.0
2018-Apr-21 02:00N 61°06' E 004°43'0 0.0
2018-Apr-21 01:30N 61°06' E 004°43'0 0.0
2018-Apr-21 01:00N 61°06' E 004°43'0 0.0
2018-Apr-21 00:30N 61°06' E 004°43'0 0.0
2018-Apr-21 00:00N 61°06' E 004°43'0 0.0
2018-Apr-20 23:30N 61°06' E 004°43'0 0.0
2018-Apr-20 23:00N 61°06' E 004°43'0 0.0
2018-Apr-20 22:30N 61°06' E 004°43'0 0.0
2018-Apr-20 21:59N 61°06' E 004°43'0 0.0
2018-Apr-20 21:30N 61°06' E 004°43'0 0.0
2018-Apr-20 20:59N 61°06' E 004°43'0 0.0
2018-Apr-20 20:30N 61°06' E 004°43'1 1.1
2018-Apr-20 20:00N 61°06' E 004°43'0 0.3
2018-Apr-20 19:30N 61°06' E 004°43'0 0.3
2018-Apr-20 19:00N 61°06' E 004°43'0 0.3
2018-Apr-20 18:30N 61°06' E 004°43'0 0.1
2018-Apr-20 17:59N 61°06' E 004°43'0 0.3
2018-Apr-20 17:30N 61°06' E 004°43'0 0.0
2018-Apr-20 17:00N 61°06' E 004°43'1 2.6
2018-Apr-20 16:30N 61°07' E 004°44'510.7
2018-Apr-20 16:00N 61°12' E 004°43'510.1
2018-Apr-20 15:30N 61°17' E 004°47'510.6
2018-Apr-20 15:00N 61°22' E 004°49'610.7
2018-Apr-20 14:29N 61°27' E 004°54'510.6
2018-Apr-20 14:00N 61°31' E 005°00'510.3
2018-Apr-20 13:30N 61°36' E 004°58'510.5
2018-Apr-20 13:00N 61°41' E 004°57'510.0
2018-Apr-20 12:30N 61°46' E 005°02'511.0
2018-Apr-20 12:00N 61°49' E 005°11'3 6.6
2018-Apr-20 11:30N 61°52' E 005°13'5 9.1
2018-Apr-20 10:59N 61°57' E 005°08'510.7
2018-Apr-20 10:30N 62°02' E 005°09'511.0
2018-Apr-20 10:00N 62°07' E 005°05'5 9.7
2018-Apr-20 09:30N 62°12' E 005°05'510.2
2018-Apr-20 09:00N 62°15' E 005°14'510.6
2018-Apr-20 08:30N 62°17' E 005°24'510.3
2018-Apr-20 08:00N 62°18' E 005°35'2 4.4
2018-Apr-20 07:28N 62°19' E 005°39'0 0.1
2018-Apr-20 06:59N 62°19' E 005°39'0 0.8
2018-Apr-20 06:30N 62°19' E 005°40'510.3
2018-Apr-20 06:00N 62°18' E 005°29'510.3
2018-Apr-20 05:30N 62°16' E 005°19'510.3
2018-Apr-20 05:00N 62°13' E 005°09'5 9.5
2018-Apr-20 04:30N 62°09' E 005°04'510.3
2018-Apr-20 04:00N 62°04' E 005°07'510.3
2018-Apr-20 03:30N 61°59' E 005°10'5 9.8
2018-Apr-20 03:00N 61°54' E 005°08'5 9.4
2018-Apr-20 02:30N 61°52' E 005°16'5 8.9
2018-Apr-20 02:00N 61°49' E 005°09'510.9
2018-Apr-20 01:30N 61°45' E 005°00'510.2
2018-Apr-20 01:00N 61°40' E 004°58'5 9.7
2018-Apr-20 00:30N 61°35' E 004°57'5 9.5
2018-Apr-20 00:00N 61°31' E 005°00'510.4
2018-Apr-19 23:30N 61°26' E 004°54'610.9
2018-Apr-19 22:59N 61°21' E 004°49'510.7
2018-Apr-19 22:30N 61°16' E 004°46'5 9.9
2018-Apr-19 21:59N 61°11' E 004°43'510.5
2018-Apr-19 21:30N 61°06' E 004°45'1 1.9
2018-Apr-19 20:59N 61°06' E 004°43'0 0.0
2018-Apr-19 20:29N 61°06' E 004°43'0 0.0
2018-Apr-19 19:58N 61°06' E 004°43'0 0.0
2018-Apr-19 19:30N 61°06' E 004°43'0 0.0
2018-Apr-19 19:00N 61°06' E 004°43'0 0.0
2018-Apr-19 18:30N 61°06' E 004°43'0 0.0
2018-Apr-19 18:00N 61°06' E 004°43'0 0.4
2018-Apr-19 17:30N 61°06' E 004°43'0 0.1
2018-Apr-19 17:00N 61°06' E 004°43'1 1.0
2018-Apr-19 16:30N 61°05' E 004°43'0 0.1
2018-Apr-19 16:00N 61°05' E 004°43'1 1.5
2018-Apr-19 15:30N 61°06' E 004°43'0 0.0
2018-Apr-19 15:00N 61°06' E 004°43'0 0.0
2018-Apr-19 14:30N 61°06' E 004°43'0 0.0
2018-Apr-19 14:00N 61°06' E 004°43'0 0.0
2018-Apr-19 13:30N 61°06' E 004°43'0 0.0
2018-Apr-19 13:00N 61°06' E 004°43'0 0.0
2018-Apr-19 12:30N 61°06' E 004°43'0 0.0
2018-Apr-19 12:00N 61°06' E 004°43'0 0.0
2018-Apr-19 11:30N 61°06' E 004°43'0 0.4
2018-Apr-19 11:00N 61°06' E 004°43'1 1.2
2018-Apr-19 10:28N 61°05' E 004°43'0 0.4
2018-Apr-19 10:00N 61°05' E 004°43'0 0.8
2018-Apr-19 09:30N 61°05' E 004°43'1 1.0
2018-Apr-19 09:00N 61°05' E 004°43'0 0.7
2018-Apr-19 08:30N 61°04' E 004°43'1 1.1
2018-Apr-19 08:00N 61°05' E 004°43'1 1.1
2018-Apr-19 07:30N 61°05' E 004°43'1 1.0
2018-Apr-19 07:00N 61°05' E 004°43'0 0.2
2018-Apr-19 06:30N 61°05' E 004°43'0 0.6
2018-Apr-19 06:00N 61°05' E 004°43'0 0.2
2018-Apr-19 05:30N 61°05' E 004°43'3 5.6
2018-Apr-19 05:00N 61°08' E 004°45'510.0
2018-Apr-19 04:30N 61°13' E 004°42'5 9.7
2018-Apr-19 04:00N 61°17' E 004°47'5 9.3
2018-Apr-19 03:30N 61°22' E 004°48'5 9.6
2018-Apr-19 03:00N 61°26' E 004°52'5 9.0
2018-Apr-19 02:30N 61°29' E 004°59'5 9.3
2018-Apr-19 02:00N 61°34' E 004°59'5 9.3
2018-Apr-19 01:30N 61°39' E 004°59'5 9.9
2018-Apr-19 01:00N 61°43' E 004°58'510.1
2018-Apr-19 00:30N 61°47' E 005°05'510.8
2018-Apr-19 00:00N 61°50' E 005°15'4 7.5
2018-Apr-18 23:30N 61°53' E 005°10'5 9.3
2018-Apr-18 23:00N 61°58' E 005°09'5 9.8
2018-Apr-18 22:29N 62°02' E 005°08'510.0
2018-Apr-18 22:00N 62°07' E 005°05'5 8.8
2018-Apr-18 21:28N 62°12' E 005°05'4 9.3
2018-Apr-18 21:00N 62°15' E 005°13'5 9.5
2018-Apr-18 20:30N 62°17' E 005°22'5 9.5
2018-Apr-18 20:00N 62°18' E 005°32'4 7.7
2018-Apr-18 19:30N 62°19' E 005°39'0 0.1
2018-Apr-18 19:00N 62°19' E 005°39'0 0.0
2018-Apr-18 18:30N 62°19' E 005°39'0 0.0
2018-Apr-18 18:00N 62°19' E 005°39'0 0.0
2018-Apr-18 17:30N 62°19' E 005°39'0 0.0
2018-Apr-18 17:00N 62°19' E 005°39'0 0.0
2018-Apr-18 16:30N 62°19' E 005°39'0 0.0
2018-Apr-18 16:00N 62°19' E 005°39'0 0.0
2018-Apr-18 15:30N 62°19' E 005°39'0 0.0
2018-Apr-18 15:00N 62°19' E 005°39'0 0.0
2018-Apr-18 14:30N 62°19' E 005°39'0 0.0
2018-Apr-18 14:00N 62°19' E 005°39'0 0.0
2018-Apr-18 13:30N 62°19' E 005°39'0 0.0
2018-Apr-18 13:00N 62°19' E 005°39'0 0.0
2018-Apr-18 12:30N 62°19' E 005°39'0 0.0
2018-Apr-18 11:59N 62°19' E 005°39'0 0.0
2018-Apr-18 11:30N 62°19' E 005°39'0 0.0
2018-Apr-18 11:00N 62°19' E 005°39'0 0.0
2018-Apr-18 10:29N 62°19' E 005°39'0 0.0
2018-Apr-18 10:00N 62°19' E 005°39'0 0.0
2018-Apr-18 09:29N 62°19' E 005°39'0 0.0
2018-Apr-18 08:59N 62°19' E 005°39'0 0.0
2018-Apr-18 08:30N 62°19' E 005°39'0 0.0
2018-Apr-18 08:00N 62°19' E 005°39'0 0.0
2018-Apr-18 07:30N 62°19' E 005°39'0 0.0
2018-Apr-18 07:00N 62°19' E 005°39'0 0.0
2018-Apr-18 06:30N 62°19' E 005°39'0 0.0
2018-Apr-18 06:00N 62°19' E 005°39'0 0.0
2018-Apr-18 05:30N 62°19' E 005°39'0 0.0
2018-Apr-18 05:00N 62°19' E 005°39'0 0.0
2018-Apr-18 04:30N 62°19' E 005°39'0 0.0
2018-Apr-18 04:00N 62°19' E 005°39'0 0.0
2018-Apr-18 03:30N 62°19' E 005°39'0 0.0
2018-Apr-18 03:00N 62°19' E 005°39'0 0.0
2018-Apr-18 02:30N 62°19' E 005°39'0 0.0
2018-Apr-18 02:00N 62°19' E 005°39'0 0.0
2018-Apr-18 01:30N 62°19' E 005°39'0 0.0
2018-Apr-18 01:00N 62°19' E 005°39'0 0.0
2018-Apr-18 00:30N 62°19' E 005°39'0 0.0
2018-Apr-18 00:00N 62°19' E 005°39'0 0.0
2018-Apr-17 23:30N 62°19' E 005°39'0 0.0
2018-Apr-17 23:00N 62°19' E 005°39'0 0.0
2018-Apr-17 22:29N 62°19' E 005°39'0 0.0
2018-Apr-17 22:00N 62°19' E 005°39'0 0.0
2018-Apr-17 21:30N 62°19' E 005°39'0 0.0
2018-Apr-17 21:00N 62°19' E 005°39'0 0.0
2018-Apr-17 20:30N 62°19' E 005°39'0 0.0
2018-Apr-17 20:00N 62°19' E 005°39'0 0.0
2018-Apr-17 19:30N 62°19' E 005°39'0 0.1
2018-Apr-17 19:00N 62°19' E 005°39'0 0.0
2018-Apr-17 18:30N 62°19' E 005°39'0 0.0
2018-Apr-17 18:01N 62°19' E 005°39'2 4.4
2018-Apr-17 17:30N 62°18' E 005°35'5 9.3
2018-Apr-17 17:00N 62°14' E 005°31'5 9.1
2018-Apr-17 16:30N 62°11' E 005°38'510.1
2018-Apr-17 16:00N 62°12' E 005°48'3 5.8
2018-Apr-17 15:30N 62°12' E 005°54'0 0.0
2018-Apr-17 15:00N 62°12' E 005°54'0 0.0
2018-Apr-17 14:30N 62°12' E 005°54'1 2.7
2018-Apr-17 14:00N 62°13' E 005°52'511.0
2018-Apr-17 13:30N 62°11' E 005°41'5 9.2
2018-Apr-17 13:00N 62°13' E 005°32'5 9.9
2018-Apr-17 12:30N 62°18' E 005°33'3 6.8
2018-Apr-17 12:00N 62°19' E 005°39'0 0.0
2018-Apr-17 11:30N 62°19' E 005°39'0 0.0
2018-Apr-17 10:59N 62°19' E 005°39'1 2.4
2018-Apr-17 10:29N 62°19' E 005°37'5 9.3
2018-Apr-17 10:00N 62°15' E 005°31'5 9.5
2018-Apr-17 09:30N 62°11' E 005°35'510.2
2018-Apr-17 08:59N 62°12' E 005°46'4 8.4
2018-Apr-17 08:30N 62°12' E 005°55'0 0.7
2018-Apr-17 08:00N 62°12' E 005°54'0 0.0
2018-Apr-17 07:30N 62°12' E 005°54'0 0.0
2018-Apr-17 07:00N 62°12' E 005°54'0 0.0
2018-Apr-17 06:30N 62°12' E 005°54'0 0.0
2018-Apr-17 06:00N 62°12' E 005°54'0 0.8
2018-Apr-17 05:30N 62°12' E 005°55'0 0.5
2018-Apr-17 05:00N 62°12' E 005°55'1 2.4
2018-Apr-17 04:29N 62°12' E 005°52'510.8
2018-Apr-17 04:00N 62°11' E 005°41'5 9.5
2018-Apr-17 03:30N 62°13' E 005°32'510.2
2018-Apr-17 03:00N 62°18' E 005°33'3 6.7
2018-Apr-17 02:30N 62°19' E 005°39'0 0.0
2018-Apr-17 01:59N 62°19' E 005°39'0 0.0
2018-Apr-17 01:30N 62°19' E 005°39'0 0.0
2018-Apr-17 01:00N 62°19' E 005°39'0 0.0
2018-Apr-17 00:30N 62°19' E 005°39'0 0.0
2018-Apr-17 00:00N 62°19' E 005°39'0 0.0
2018-Apr-16 23:30N 62°19' E 005°39'0 0.0
2018-Apr-16 23:00N 62°19' E 005°39'0 0.0
2018-Apr-16 22:30N 62°19' E 005°39'0 0.0
2018-Apr-16 22:00N 62°19' E 005°39'0 0.0
2018-Apr-16 21:30N 62°19' E 005°39'0 0.0
2018-Apr-16 20:59N 62°19' E 005°39'0 0.1
2018-Apr-16 20:30N 62°19' E 005°39'4 7.7
2018-Apr-16 19:59N 62°18' E 005°31'5 9.5
2018-Apr-16 19:30N 62°17' E 005°22'5 9.6
2018-Apr-16 19:00N 62°14' E 005°13'5 9.8
2018-Apr-16 18:30N 62°11' E 005°05'5 9.5
2018-Apr-16 18:00N 62°07' E 005°06'5 9.3
2018-Apr-16 17:30N 62°04' E 005°14'4 8.2
2018-Apr-16 17:00N 62°01' E 005°20'0 0.0
2018-Apr-16 16:30N 62°01' E 005°20'1 1.1
2018-Apr-16 16:00N 62°01' E 005°19'510.7
2018-Apr-16 15:30N 62°05' E 005°11'510.2
2018-Apr-16 15:00N 62°09' E 005°04'5 9.7
2018-Apr-16 14:30N 62°13' E 005°09'610.8
2018-Apr-16 13:59N 62°16' E 005°19'510.7
2018-Apr-16 13:30N 62°18' E 005°29'510.1
2018-Apr-16 13:00N 62°19' E 005°40'0 0.7
2018-Apr-16 12:30N 62°19' E 005°39'0 0.1
2018-Apr-16 12:00N 62°19' E 005°39'0 0.0
2018-Apr-16 11:30N 62°19' E 005°39'3 5.5
2018-Apr-16 11:00N 62°18' E 005°34'5 9.4
2018-Apr-16 10:30N 62°17' E 005°24'5 9.8
2018-Apr-16 10:00N 62°15' E 005°15'510.2
2018-Apr-16 09:30N 62°12' E 005°06'5 9.4
2018-Apr-16 09:00N 62°07' E 005°05'5 9.4
2018-Apr-16 08:30N 62°04' E 005°13'5 9.5
2018-Apr-16 08:00N 62°01' E 005°20'0 0.1
2018-Apr-16 07:30N 62°01' E 005°20'0 0.0
2018-Apr-16 06:59N 62°01' E 005°20'2 4.1
2018-Apr-16 06:30N 62°02' E 005°17'510.8
2018-Apr-16 06:00N 62°05' E 005°08'510.5
2018-Apr-16 05:30N 62°10' E 005°04'510.3
2018-Apr-16 05:00N 62°14' E 005°11'510.9
2018-Apr-16 04:30N 62°17' E 005°21'610.9
2018-Apr-16 04:00N 62°18' E 005°33'3 6.5
2018-Apr-16 03:29N 62°19' E 005°39'0 0.0
2018-Apr-16 03:00N 62°19' E 005°39'0 0.0
2018-Apr-16 02:30N 62°19' E 005°39'0 0.0
2018-Apr-16 02:00N 62°19' E 005°39'0 0.0
2018-Apr-16 01:30N 62°19' E 005°39'0 0.0
2018-Apr-16 01:00N 62°19' E 005°39'0 0.0
2018-Apr-16 00:30N 62°19' E 005°39'0 0.0
2018-Apr-16 00:00N 62°19' E 005°39'0 0.0
2018-Apr-15 23:30N 62°19' E 005°39'0 0.0
2018-Apr-15 23:00N 62°19' E 005°39'0 0.0
2018-Apr-15 22:29N 62°19' E 005°39'0 0.0
2018-Apr-15 21:59N 62°19' E 005°39'0 0.0
2018-Apr-15 21:30N 62°19' E 005°39'0 0.0
2018-Apr-15 21:00N 62°19' E 005°39'1 2.3
2018-Apr-15 20:30N 62°19' E 005°37'5 9.6
2018-Apr-15 20:00N 62°18' E 005°27'5 9.6
2018-Apr-15 19:30N 62°16' E 005°18'5 9.7
2018-Apr-15 18:58N 62°13' E 005°08'4 8.8
2018-Apr-15 18:30N 62°09' E 005°04'5 9.1
2018-Apr-15 18:00N 62°05' E 005°08'5 9.7
2018-Apr-15 17:30N 62°02' E 005°17'2 4.3
2018-Apr-15 17:00N 62°01' E 005°20'0 0.0
2018-Apr-15 16:30N 62°01' E 005°20'0 0.0
2018-Apr-15 16:00N 62°01' E 005°20'1 1.1
2018-Apr-15 15:30N 62°00' E 005°19'4 8.4
2018-Apr-15 15:00N 61°59' E 005°10'510.2
2018-Apr-15 14:30N 61°54' E 005°08'510.0
2018-Apr-15 14:00N 61°51' E 005°16'510.2
2018-Apr-15 13:30N 61°48' E 005°07'611.5
2018-Apr-15 13:00N 61°44' E 004°59'610.7
2018-Apr-15 12:29N 61°39' E 004°59'3 6.4
2018-Apr-15 12:00N 61°36' E 005°02'0 0.0
2018-Apr-15 11:30N 61°36' E 005°02'0 0.0
2018-Apr-15 11:00N 61°36' E 005°02'1 2.3
2018-Apr-15 10:30N 61°36' E 004°60'3 6.9
2018-Apr-15 10:00N 61°33' E 004°59'0 0.7
2018-Apr-15 09:30N 61°33' E 004°58'0 0.0
2018-Apr-15 09:00N 61°33' E 004°58'0 0.0
2018-Apr-15 08:30N 61°33' E 004°58'0 0.0
2018-Apr-15 08:00N 61°33' E 004°58'2 4.6
2018-Apr-15 07:30N 61°35' E 004°57'3 5.2
2018-Apr-15 07:00N 61°36' E 005°02'0 0.0
2018-Apr-15 06:30N 61°36' E 005°02'0 0.0
2018-Apr-15 06:00N 61°36' E 005°02'0 0.0
2018-Apr-15 05:29N 61°36' E 005°02'0 0.0
2018-Apr-15 05:00N 61°36' E 005°02'0 0.0
2018-Apr-15 04:30N 61°36' E 005°02'0 0.0
2018-Apr-15 04:00N 61°36' E 005°02'0 0.0
2018-Apr-15 03:30N 61°36' E 005°02'0 0.0
2018-Apr-15 03:00N 61°36' E 005°02'0 0.0
2018-Apr-15 02:29N 61°36' E 005°02'0 0.0
2018-Apr-15 02:00N 61°36' E 005°02'0 0.0
2018-Apr-15 01:30N 61°36' E 005°02'0 0.0
2018-Apr-15 01:00N 61°36' E 005°02'0 0.0
2018-Apr-15 00:30N 61°36' E 005°02'0 0.0
2018-Apr-14 23:59N 61°36' E 005°02'0 0.0
2018-Apr-14 23:30N 61°36' E 005°02'0 0.0
2018-Apr-14 23:00N 61°36' E 005°02'0 0.0
2018-Apr-14 22:30N 61°36' E 005°02'0 0.0
2018-Apr-14 22:00N 61°36' E 005°02'0 0.0
2018-Apr-14 21:30N 61°36' E 005°02'0 0.0
2018-Apr-14 21:00N 61°36' E 005°02'0 0.0
2018-Apr-14 20:30N 61°36' E 005°02'3 6.7
2018-Apr-14 20:00N 61°39' E 004°59'510.4
2018-Apr-14 19:30N 61°44' E 004°59'611.0
2018-Apr-14 18:59N 61°48' E 005°07'5 9.9
2018-Apr-14 18:30N 61°51' E 005°16'5 9.2
2018-Apr-14 18:00N 61°54' E 005°09'2 4.0
2018-Apr-14 17:30N 61°56' E 005°08'0 0.0
2018-Apr-14 17:00N 61°56' E 005°08'0 0.0
2018-Apr-14 16:29N 61°56' E 005°08'3 6.0
2018-Apr-14 16:00N 61°59' E 005°09'510.8
2018-Apr-14 15:30N 62°04' E 005°07'611.3
2018-Apr-14 14:59N 62°10' E 005°04'510.8
2018-Apr-14 14:30N 62°14' E 005°10'611.6
2018-Apr-14 14:00N 62°17' E 005°21'611.3
2018-Apr-14 13:29N 62°18' E 005°33'511.3
2018-Apr-14 13:00N 62°19' E 005°45'3 5.9
2018-Apr-14 12:30N 62°22' E 005°48'510.4
2018-Apr-14 12:00N 62°26' E 005°55'510.9
2018-Apr-14 11:30N 62°29' E 006°05'510.5
2018-Apr-14 11:01N 62°33' E 006°10'611.4
2018-Apr-14 10:29N 62°37' E 006°19'511.2
2018-Apr-14 10:00N 62°42' E 006°27'510.9
2018-Apr-14 09:30N 62°47' E 006°30'1 1.2
2018-Apr-14 09:00N 62°47' E 006°31'510.9
2018-Apr-14 08:30N 62°46' E 006°43'510.4
2018-Apr-14 08:00N 62°46' E 006°54'1 2.5
2018-Apr-14 07:30N 62°47' E 006°56'0 0.0
2018-Apr-14 07:00N 62°47' E 006°56'0 0.2
2018-Apr-14 06:30N 62°47' E 006°55'0 0.2
2018-Apr-14 06:00N 62°47' E 006°55'0 0.0
2018-Apr-14 05:30N 62°47' E 006°55'0 0.1
2018-Apr-14 05:00N 62°47' E 006°55'0 0.0
2018-Apr-14 04:29N 62°47' E 006°55'0 0.0
2018-Apr-14 03:59N 62°47' E 006°55'0 0.0
2018-Apr-14 03:30N 62°47' E 006°55'1 1.4
2018-Apr-14 03:00N 62°46' E 006°55'510.2
2018-Apr-14 02:30N 62°45' E 006°44'510.1
2018-Apr-14 02:00N 62°43' E 006°34'510.5
2018-Apr-14 01:30N 62°39' E 006°26'510.2
2018-Apr-14 01:00N 62°36' E 006°17'3 6.8
2018-Apr-14 00:30N 62°34' E 006°11'4 7.6
2018-Apr-14 00:00N 62°31' E 006°09'5 9.7
2018-Apr-13 23:30N 62°27' E 006°03'5 9.5
2018-Apr-13 22:59N 62°22' E 006°07'4 8.8
2018-Apr-13 22:30N 62°18' E 006°03'510.0
2018-Apr-13 21:59N 62°14' E 005°56'5 9.5
2018-Apr-13 21:29N 62°10' E 005°58'  

Dump ship's entire track history